sensor_id;sensor_type;location;lat;lon;timestamp;temperature;humidity
66213;SHT31;53015;50.046;8.238;2023-07-02T00:00:01;17.04;91.72
66213;SHT31;53015;50.046;8.238;2023-07-02T00:02:26;17.14;90.91
66213;SHT31;53015;50.046;8.238;2023-07-02T00:04:52;17.07;89.90
66213;SHT31;53015;50.046;8.238;2023-07-02T00:07:18;17.00;90.26
66213;SHT31;53015;50.046;8.238;2023-07-02T00:09:44;16.84;90.83
66213;SHT31;53015;50.046;8.238;2023-07-02T00:12:09;16.71;90.56
66213;SHT31;53015;50.046;8.238;2023-07-02T00:14:35;16.73;91.25
66213;SHT31;53015;50.046;8.238;2023-07-02T00:17:01;16.52;91.52
66213;SHT31;53015;50.046;8.238;2023-07-02T00:19:26;16.40;90.46
66213;SHT31;53015;50.046;8.238;2023-07-02T00:21:52;16.30;90.15
66213;SHT31;53015;50.046;8.238;2023-07-02T00:24:19;16.33;90.28
66213;SHT31;53015;50.046;8.238;2023-07-02T00:26:44;16.33;90.01
66213;SHT31;53015;50.046;8.238;2023-07-02T00:29:10;16.26;90.75
66213;SHT31;53015;50.046;8.238;2023-07-02T00:31:36;16.26;90.34
66213;SHT31;53015;50.046;8.238;2023-07-02T00:34:02;16.22;91.06
66213;SHT31;53015;50.046;8.238;2023-07-02T00:36:27;16.20;91.11
66213;SHT31;53015;50.046;8.238;2023-07-02T00:38:53;16.23;90.74
66213;SHT31;53015;50.046;8.238;2023-07-02T00:41:20;16.10;90.89
66213;SHT31;53015;50.046;8.238;2023-07-02T00:43:45;16.04;89.55
66213;SHT31;53015;50.046;8.238;2023-07-02T00:46:13;16.13;88.52
66213;SHT31;53015;50.046;8.238;2023-07-02T00:48:39;16.25;90.13
66213;SHT31;53015;50.046;8.238;2023-07-02T00:51:06;16.20;91.01
66213;SHT31;53015;50.046;8.238;2023-07-02T00:53:31;16.09;88.82
66213;SHT31;53015;50.046;8.238;2023-07-02T00:55:57;16.12;88.75
66213;SHT31;53015;50.046;8.238;2023-07-02T00:58:24;16.06;89.65
66213;SHT31;53015;50.046;8.238;2023-07-02T01:00:49;16.19;90.04
66213;SHT31;53015;50.046;8.238;2023-07-02T01:03:15;16.12;91.14
66213;SHT31;53015;50.046;8.238;2023-07-02T01:05:40;15.95;90.96
66213;SHT31;53015;50.046;8.238;2023-07-02T01:08:06;15.94;91.47
66213;SHT31;53015;50.046;8.238;2023-07-02T01:10:32;15.90;90.95
66213;SHT31;53015;50.046;8.238;2023-07-02T01:13:01;15.64;92.09
66213;SHT31;53015;50.046;8.238;2023-07-02T01:15:29;15.71;92.05
66213;SHT31;53015;50.046;8.238;2023-07-02T01:17:56;15.70;91.08
66213;SHT31;53015;50.046;8.238;2023-07-02T01:20:24;15.65;91.39
66213;SHT31;53015;50.046;8.238;2023-07-02T01:22:51;15.50;91.56
66213;SHT31;53015;50.046;8.238;2023-07-02T01:25:17;15.55;91.69
66213;SHT31;53015;50.046;8.238;2023-07-02T01:27:43;15.54;90.67
66213;SHT31;53015;50.046;8.238;2023-07-02T01:30:09;15.51;90.51
66213;SHT31;53015;50.046;8.238;2023-07-02T01:32:34;15.53;91.08
66213;SHT31;53015;50.046;8.238;2023-07-02T01:35:00;15.40;91.19
66213;SHT31;53015;50.046;8.238;2023-07-02T01:37:27;15.51;90.81
66213;SHT31;53015;50.046;8.238;2023-07-02T01:39:52;15.60;90.74
66213;SHT31;53015;50.046;8.238;2023-07-02T01:42:18;15.43;91.02
66213;SHT31;53015;50.046;8.238;2023-07-02T01:44:45;15.47;89.96
66213;SHT31;53015;50.046;8.238;2023-07-02T01:47:10;15.54;88.93
66213;SHT31;53015;50.046;8.238;2023-07-02T01:49:36;15.51;90.48
66213;SHT31;53015;50.046;8.238;2023-07-02T01:52:02;15.44;90.39
66213;SHT31;53015;50.046;8.238;2023-07-02T01:54:30;15.40;90.42
66213;SHT31;53015;50.046;8.238;2023-07-02T01:56:56;15.39;91.33
66213;SHT31;53015;50.046;8.238;2023-07-02T01:59:21;15.23;90.91
66213;SHT31;53015;50.046;8.238;2023-07-02T02:01:47;15.06;90.40
66213;SHT31;53015;50.046;8.238;2023-07-02T02:04:13;15.13;90.74
66213;SHT31;53015;50.046;8.238;2023-07-02T02:06:39;15.23;90.87
66213;SHT31;53015;50.046;8.238;2023-07-02T02:09:05;15.22;90.56
66213;SHT31;53015;50.046;8.238;2023-07-02T02:11:33;15.08;90.80
66213;SHT31;53015;50.046;8.238;2023-07-02T02:13:59;14.98;91.47
66213;SHT31;53015;50.046;8.238;2023-07-02T02:16:25;14.95;91.70
66213;SHT31;53015;50.046;8.238;2023-07-02T02:18:50;14.85;91.76
66213;SHT31;53015;50.046;8.238;2023-07-02T02:21:16;14.85;91.96
66213;SHT31;53015;50.046;8.238;2023-07-02T02:23:41;14.96;91.90
66213;SHT31;53015;50.046;8.238;2023-07-02T02:26:07;14.72;91.94
66213;SHT31;53015;50.046;8.238;2023-07-02T02:28:34;14.87;91.89
66213;SHT31;53015;50.046;8.238;2023-07-02T02:30:59;14.64;92.13
66213;SHT31;53015;50.046;8.238;2023-07-02T02:33:24;14.82;91.98
66213;SHT31;53015;50.046;8.238;2023-07-02T02:35:50;14.81;91.57
66213;SHT31;53015;50.046;8.238;2023-07-02T02:38:15;14.72;90.35
66213;SHT31;53015;50.046;8.238;2023-07-02T02:40:41;14.67;88.75
66213;SHT31;53015;50.046;8.238;2023-07-02T02:43:07;14.67;88.59
66213;SHT31;53015;50.046;8.238;2023-07-02T02:45:33;14.56;87.61
66213;SHT31;53015;50.046;8.238;2023-07-02T02:47:59;14.57;88.00
66213;SHT31;53015;50.046;8.238;2023-07-02T02:50:24;14.74;88.49
66213;SHT31;53015;50.046;8.238;2023-07-02T02:52:50;14.88;87.86
66213;SHT31;53015;50.046;8.238;2023-07-02T02:55:15;14.92;87.20
66213;SHT31;53015;50.046;8.238;2023-07-02T02:57:41;14.85;87.06
66213;SHT31;53015;50.046;8.238;2023-07-02T03:00:07;14.85;86.86
66213;SHT31;53015;50.046;8.238;2023-07-02T03:02:34;14.91;87.24
66213;SHT31;53015;50.046;8.238;2023-07-02T03:04:59;14.68;86.27
66213;SHT31;53015;50.046;8.238;2023-07-02T03:07:25;14.57;86.79
66213;SHT31;53015;50.046;8.238;2023-07-02T03:09:50;14.53;87.30
66213;SHT31;53015;50.046;8.238;2023-07-02T03:12:16;14.81;87.19
66213;SHT31;53015;50.046;8.238;2023-07-02T03:14:41;14.95;86.97
66213;SHT31;53015;50.046;8.238;2023-07-02T03:17:07;14.99;86.80
66213;SHT31;53015;50.046;8.238;2023-07-02T03:19:33;14.82;86.58
66213;SHT31;53015;50.046;8.238;2023-07-02T03:21:59;14.71;86.37
66213;SHT31;53015;50.046;8.238;2023-07-02T03:24:24;14.84;85.16
66213;SHT31;53015;50.046;8.238;2023-07-02T03:26:50;14.99;85.50
66213;SHT31;53015;50.046;8.238;2023-07-02T03:29:15;15.00;85.59
66213;SHT31;53015;50.046;8.238;2023-07-02T03:31:41;15.06;85.24
66213;SHT31;53015;50.046;8.238;2023-07-02T03:34:08;15.33;84.94
66213;SHT31;53015;50.046;8.238;2023-07-02T03:36:35;15.27;84.06
66213;SHT31;53015;50.046;8.238;2023-07-02T03:39:00;15.39;83.27
66213;SHT31;53015;50.046;8.238;2023-07-02T03:41:26;15.42;83.43
66213;SHT31;53015;50.046;8.238;2023-07-02T03:43:52;15.32;83.54
66213;SHT31;53015;50.046;8.238;2023-07-02T03:46:17;15.50;84.71
66213;SHT31;53015;50.046;8.238;2023-07-02T03:48:43;15.40;84.84
66213;SHT31;53015;50.046;8.238;2023-07-02T03:51:08;15.43;84.59
66213;SHT31;53015;50.046;8.238;2023-07-02T03:53:35;15.60;84.65
66213;SHT31;53015;50.046;8.238;2023-07-02T03:56:00;15.75;85.51
66213;SHT31;53015;50.046;8.238;2023-07-02T03:58:26;15.67;84.08
66213;SHT31;53015;50.046;8.238;2023-07-02T04:00:51;15.71;84.90
66213;SHT31;53015;50.046;8.238;2023-07-02T04:03:17;15.60;84.90
66213;SHT31;53015;50.046;8.238;2023-07-02T04:05:43;15.72;85.52
66213;SHT31;53015;50.046;8.238;2023-07-02T04:08:08;15.80;85.08
66213;SHT31;53015;50.046;8.238;2023-07-02T04:10:35;15.80;85.97
66213;SHT31;53015;50.046;8.238;2023-07-02T04:13:01;15.77;86.21
66213;SHT31;53015;50.046;8.238;2023-07-02T04:15:27;15.70;85.22
66213;SHT31;53015;50.046;8.238;2023-07-02T04:17:53;15.65;85.53
66213;SHT31;53015;50.046;8.238;2023-07-02T04:20:18;15.74;86.00
66213;SHT31;53015;50.046;8.238;2023-07-02T04:22:44;15.78;85.63
66213;SHT31;53015;50.046;8.238;2023-07-02T04:25:09;15.58;84.99
66213;SHT31;53015;50.046;8.238;2023-07-02T04:27:36;15.77;85.17
66213;SHT31;53015;50.046;8.238;2023-07-02T04:30:02;15.70;84.47
66213;SHT31;53015;50.046;8.238;2023-07-02T04:32:27;15.78;85.23
66213;SHT31;53015;50.046;8.238;2023-07-02T04:34:53;15.82;84.48
66213;SHT31;53015;50.046;8.238;2023-07-02T04:37:18;15.71;83.33
66213;SHT31;53015;50.046;8.238;2023-07-02T04:39:44;15.67;82.38
66213;SHT31;53015;50.046;8.238;2023-07-02T04:42:09;15.67;83.26
66213;SHT31;53015;50.046;8.238;2023-07-02T04:44:36;15.70;83.42
66213;SHT31;53015;50.046;8.238;2023-07-02T04:47:02;15.61;83.56
66213;SHT31;53015;50.046;8.238;2023-07-02T04:49:27;15.70;83.48
66213;SHT31;53015;50.046;8.238;2023-07-02T04:51:53;15.60;82.95
66213;SHT31;53015;50.046;8.238;2023-07-02T04:54:19;15.57;82.85
66213;SHT31;53015;50.046;8.238;2023-07-02T04:56:45;15.39;81.93
66213;SHT31;53015;50.046;8.238;2023-07-02T04:59:10;15.64;82.77
66213;SHT31;53015;50.046;8.238;2023-07-02T05:01:37;15.61;82.22
66213;SHT31;53015;50.046;8.238;2023-07-02T05:04:05;15.54;81.05
66213;SHT31;53015;50.046;8.238;2023-07-02T05:06:30;15.60;81.86
66213;SHT31;53015;50.046;8.238;2023-07-02T05:08:56;15.92;82.59
66213;SHT31;53015;50.046;8.238;2023-07-02T05:11:21;15.95;82.30
66213;SHT31;53015;50.046;8.238;2023-07-02T05:13:46;15.91;82.06
66213;SHT31;53015;50.046;8.238;2023-07-02T05:16:12;15.97;83.03
66213;SHT31;53015;50.046;8.238;2023-07-02T05:18:39;15.95;82.22
66213;SHT31;53015;50.046;8.238;2023-07-02T05:21:04;16.02;81.80
66213;SHT31;53015;50.046;8.238;2023-07-02T05:23:30;16.32;81.17
66213;SHT31;53015;50.046;8.238;2023-07-02T05:25:55;16.30;80.29
66213;SHT31;53015;50.046;8.238;2023-07-02T05:28:21;16.43;80.65
66213;SHT31;53015;50.046;8.238;2023-07-02T05:30:46;16.39;81.25
66213;SHT31;53015;50.046;8.238;2023-07-02T05:33:12;16.30;79.12
66213;SHT31;53015;50.046;8.238;2023-07-02T05:35:39;16.25;79.89
66213;SHT31;53015;50.046;8.238;2023-07-02T05:38:04;16.30;80.04
66213;SHT31;53015;50.046;8.238;2023-07-02T05:40:29;16.50;79.01
66213;SHT31;53015;50.046;8.238;2023-07-02T05:42:55;16.80;77.98
66213;SHT31;53015;50.046;8.238;2023-07-02T05:45:20;16.94;78.29
66213;SHT31;53015;50.046;8.238;2023-07-02T05:47:46;17.10;77.97
66213;SHT31;53015;50.046;8.238;2023-07-02T05:50:12;17.25;77.85
66213;SHT31;53015;50.046;8.238;2023-07-02T05:52:39;17.47;77.38
66213;SHT31;53015;50.046;8.238;2023-07-02T05:55:05;17.53;77.41
66213;SHT31;53015;50.046;8.238;2023-07-02T05:57:32;17.60;76.47
66213;SHT31;53015;50.046;8.238;2023-07-02T05:59:58;17.65;75.83
66213;SHT31;53015;50.046;8.238;2023-07-02T06:02:23;17.63;76.42
66213;SHT31;53015;50.046;8.238;2023-07-02T06:04:49;17.74;76.71
66213;SHT31;53015;50.046;8.238;2023-07-02T06:07:14;18.01;76.23
66213;SHT31;53015;50.046;8.238;2023-07-02T06:09:41;18.16;75.38
66213;SHT31;53015;50.046;8.238;2023-07-02T06:12:07;18.45;74.41
66213;SHT31;53015;50.046;8.238;2023-07-02T06:14:33;18.41;74.12
66213;SHT31;53015;50.046;8.238;2023-07-02T06:16:58;18.70;74.00
66213;SHT31;53015;50.046;8.238;2023-07-02T06:19:24;18.70;73.19
66213;SHT31;53015;50.046;8.238;2023-07-02T06:21:49;18.66;72.71
66213;SHT31;53015;50.046;8.238;2023-07-02T06:24:15;18.66;73.94
66213;SHT31;53015;50.046;8.238;2023-07-02T06:26:42;18.79;72.84
66213;SHT31;53015;50.046;8.238;2023-07-02T06:29:07;18.93;72.70
66213;SHT31;53015;50.046;8.238;2023-07-02T06:31:33;19.14;72.61
66213;SHT31;53015;50.046;8.238;2023-07-02T06:33:58;19.22;71.74
66213;SHT31;53015;50.046;8.238;2023-07-02T06:36:24;19.12;70.30
66213;SHT31;53015;50.046;8.238;2023-07-02T06:38:49;19.36;71.17
66213;SHT31;53015;50.046;8.238;2023-07-02T06:41:15;19.14;70.54
66213;SHT31;53015;50.046;8.238;2023-07-02T06:43:43;19.32;71.16
66213;SHT31;53015;50.046;8.238;2023-07-02T06:46:09;19.36;71.67
66213;SHT31;53015;50.046;8.238;2023-07-02T06:48:35;19.65;70.67
66213;SHT31;53015;50.046;8.238;2023-07-02T06:51:00;19.67;69.81
66213;SHT31;53015;50.046;8.238;2023-07-02T06:53:26;19.77;69.95
66213;SHT31;53015;50.046;8.238;2023-07-02T06:55:51;19.94;69.69
66213;SHT31;53015;50.046;8.238;2023-07-02T06:58:17;20.04;69.04
66213;SHT31;53015;50.046;8.238;2023-07-02T07:00:44;19.81;69.45
66213;SHT31;53015;50.046;8.238;2023-07-02T07:03:09;19.19;69.67
66213;SHT31;53015;50.046;8.238;2023-07-02T07:05:35;19.04;70.76
66213;SHT31;53015;50.046;8.238;2023-07-02T07:08:00;19.04;70.79
66213;SHT31;53015;50.046;8.238;2023-07-02T07:10:26;19.10;71.53
66213;SHT31;53015;50.046;8.238;2023-07-02T07:12:52;19.11;70.31
66213;SHT31;53015;50.046;8.238;2023-07-02T07:15:17;19.11;70.64
66213;SHT31;53015;50.046;8.238;2023-07-02T07:17:44;19.28;71.54
66213;SHT31;53015;50.046;8.238;2023-07-02T07:20:10;19.62;71.68
66213;SHT31;53015;50.046;8.238;2023-07-02T07:22:36;19.79;70.89
66213;SHT31;53015;50.046;8.238;2023-07-02T07:25:01;19.65;70.19
66213;SHT31;53015;50.046;8.238;2023-07-02T07:27:27;19.55;69.53
66213;SHT31;53015;50.046;8.238;2023-07-02T07:29:52;19.41;69.47
66213;SHT31;53015;50.046;8.238;2023-07-02T07:32:20;19.53;70.08
66213;SHT31;53015;50.046;8.238;2023-07-02T07:34:46;19.63;69.45
66213;SHT31;53015;50.046;8.238;2023-07-02T07:37:12;19.63;69.47
66213;SHT31;53015;50.046;8.238;2023-07-02T07:39:37;19.70;68.55
66213;SHT31;53015;50.046;8.238;2023-07-02T07:42:03;19.73;67.91
66213;SHT31;53015;50.046;8.238;2023-07-02T07:44:29;19.61;68.15
66213;SHT31;53015;50.046;8.238;2023-07-02T07:46:55;19.53;67.82
66213;SHT31;53015;50.046;8.238;2023-07-02T07:49:20;19.61;68.34
66213;SHT31;53015;50.046;8.238;2023-07-02T07:51:47;19.70;68.05
66213;SHT31;53015;50.046;8.238;2023-07-02T07:54:13;19.84;68.60
66213;SHT31;53015;50.046;8.238;2023-07-02T07:56:38;19.94;69.59
66213;SHT31;53015;50.046;8.238;2023-07-02T07:59:04;20.03;69.24
66213;SHT31;53015;50.046;8.238;2023-07-02T08:01:29;20.08;69.64
66213;SHT31;53015;50.046;8.238;2023-07-02T08:03:55;19.91;68.86
66213;SHT31;53015;50.046;8.238;2023-07-02T08:06:20;19.91;69.87
66213;SHT31;53015;50.046;8.238;2023-07-02T08:08:47;19.87;69.87
66213;SHT31;53015;50.046;8.238;2023-07-02T08:11:13;20.25;68.48
66213;SHT31;53015;50.046;8.238;2023-07-02T08:13:38;20.55;66.70
66213;SHT31;53015;50.046;8.238;2023-07-02T08:16:04;20.79;66.98
66213;SHT31;53015;50.046;8.238;2023-07-02T08:18:30;20.91;65.70
66213;SHT31;53015;50.046;8.238;2023-07-02T08:20:55;21.21;65.95
66213;SHT31;53015;50.046;8.238;2023-07-02T08:23:21;21.26;62.93
66213;SHT31;53015;50.046;8.238;2023-07-02T08:25:48;21.48;63.59
66213;SHT31;53015;50.046;8.238;2023-07-02T08:28:13;21.37;63.25
66213;SHT31;53015;50.046;8.238;2023-07-02T08:30:39;21.42;62.78
66213;SHT31;53015;50.046;8.238;2023-07-02T08:33:04;21.59;62.84
66213;SHT31;53015;50.046;8.238;2023-07-02T08:35:30;21.67;64.00
66213;SHT31;53015;50.046;8.238;2023-07-02T08:37:55;21.92;62.77
66213;SHT31;53015;50.046;8.238;2023-07-02T08:40:21;21.97;62.73
66213;SHT31;53015;50.046;8.238;2023-07-02T08:42:48;22.02;61.10
66213;SHT31;53015;50.046;8.238;2023-07-02T08:45:14;21.93;61.70
66213;SHT31;53015;50.046;8.238;2023-07-02T08:47:40;22.09;61.66
66213;SHT31;53015;50.046;8.238;2023-07-02T08:50:06;21.96;61.20
66213;SHT31;53015;50.046;8.238;2023-07-02T08:52:31;21.99;62.22
66213;SHT31;53015;50.046;8.238;2023-07-02T08:54:57;21.86;61.47
66213;SHT31;53015;50.046;8.238;2023-07-02T08:57:22;21.75;60.10
66213;SHT31;53015;50.046;8.238;2023-07-02T08:59:49;21.90;59.64
66213;SHT31;53015;50.046;8.238;2023-07-02T09:02:15;22.13;59.95
66213;SHT31;53015;50.046;8.238;2023-07-02T09:04:40;22.16;59.92
66213;SHT31;53015;50.046;8.238;2023-07-02T09:07:07;22.04;58.77
66213;SHT31;53015;50.046;8.238;2023-07-02T09:09:33;21.89;59.21
66213;SHT31;53015;50.046;8.238;2023-07-02T09:12:09;21.78;59.52
66213;SHT31;53015;50.046;8.238;2023-07-02T09:14:34;21.59;60.25
66213;SHT31;53015;50.046;8.238;2023-07-02T09:17:08;21.72;59.18
66213;SHT31;53015;50.046;8.238;2023-07-02T09:19:34;21.89;59.65
66213;SHT31;53015;50.046;8.238;2023-07-02T09:22:00;22.44;58.62
66213;SHT31;53015;50.046;8.238;2023-07-02T09:24:27;22.76;57.93
66213;SHT31;53015;50.046;8.238;2023-07-02T09:26:54;22.49;56.48
66213;SHT31;53015;50.046;8.238;2023-07-02T09:29:21;22.37;55.84
66213;SHT31;53015;50.046;8.238;2023-07-02T09:31:48;22.54;55.69
66213;SHT31;53015;50.046;8.238;2023-07-02T09:34:15;22.54;54.89
66213;SHT31;53015;50.046;8.238;2023-07-02T09:36:41;22.40;54.08
66213;SHT31;53015;50.046;8.238;2023-07-02T09:39:07;22.33;54.63
66213;SHT31;53015;50.046;8.238;2023-07-02T09:41:33;22.52;54.78
66213;SHT31;53015;50.046;8.238;2023-07-02T09:44:00;22.59;54.54
66213;SHT31;53015;50.046;8.238;2023-07-02T09:46:26;22.62;54.79
66213;SHT31;53015;50.046;8.238;2023-07-02T09:48:53;22.85;55.03
66213;SHT31;53015;50.046;8.238;2023-07-02T09:51:20;22.89;55.00
66213;SHT31;53015;50.046;8.238;2023-07-02T09:53:45;22.68;56.25
66213;SHT31;53015;50.046;8.238;2023-07-02T09:56:11;22.93;55.93
66213;SHT31;53015;50.046;8.238;2023-07-02T09:58:36;22.75;53.76
66213;SHT31;53015;50.046;8.238;2023-07-02T10:01:02;22.30;53.82
66213;SHT31;53015;50.046;8.238;2023-07-02T10:03:29;22.66;55.44
66213;SHT31;53015;50.046;8.238;2023-07-02T10:06:02;22.73;56.08
66213;SHT31;53015;50.046;8.238;2023-07-02T10:08:29;22.72;56.18
66213;SHT31;53015;50.046;8.238;2023-07-02T10:11:06;22.29;55.51
66213;SHT31;53015;50.046;8.238;2023-07-02T10:13:32;21.86;55.72
66213;SHT31;53015;50.046;8.238;2023-07-02T10:16:01;21.92;55.39
66213;SHT31;53015;50.046;8.238;2023-07-02T10:18:26;22.30;54.94
66213;SHT31;53015;50.046;8.238;2023-07-02T10:20:52;22.54;54.50
66213;SHT31;53015;50.046;8.238;2023-07-02T10:23:18;22.65;54.81
66213;SHT31;53015;50.046;8.238;2023-07-02T10:25:44;22.78;54.06
66213;SHT31;53015;50.046;8.238;2023-07-02T10:28:17;22.64;53.82
66213;SHT31;53015;50.046;8.238;2023-07-02T10:30:43;22.54;54.72
66213;SHT31;53015;50.046;8.238;2023-07-02T10:33:10;22.55;53.14
66213;SHT31;53015;50.046;8.238;2023-07-02T10:35:36;22.64;52.69
66213;SHT31;53015;50.046;8.238;2023-07-02T10:38:02;22.82;51.69
66213;SHT31;53015;50.046;8.238;2023-07-02T10:40:28;23.07;50.83
66213;SHT31;53015;50.046;8.238;2023-07-02T10:42:55;23.33;51.86
66213;SHT31;53015;50.046;8.238;2023-07-02T10:45:21;23.17;51.28
66213;SHT31;53015;50.046;8.238;2023-07-02T10:47:55;22.62;50.68
66213;SHT31;53015;50.046;8.238;2023-07-02T10:50:21;22.20;50.77
66213;SHT31;53015;50.046;8.238;2023-07-02T10:52:47;22.29;51.93
66213;SHT31;53015;50.046;8.238;2023-07-02T10:55:16;22.29;52.80
66213;SHT31;53015;50.046;8.238;2023-07-02T10:57:42;22.55;53.04
66213;SHT31;53015;50.046;8.238;2023-07-02T11:00:10;22.85;51.61
66213;SHT31;53015;50.046;8.238;2023-07-02T11:02:36;23.00;50.65
66213;SHT31;53015;50.046;8.238;2023-07-02T11:05:02;23.12;50.26
66213;SHT31;53015;50.046;8.238;2023-07-02T11:07:27;23.31;51.35
66213;SHT31;53015;50.046;8.238;2023-07-02T11:09:53;23.50;50.39
66213;SHT31;53015;50.046;8.238;2023-07-02T11:12:27;23.85;50.12
66213;SHT31;53015;50.046;8.238;2023-07-02T11:14:52;23.85;49.44
66213;SHT31;53015;50.046;8.238;2023-07-02T11:17:24;23.82;47.71
66213;SHT31;53015;50.046;8.238;2023-07-02T11:19:50;23.94;47.70
66213;SHT31;53015;50.046;8.238;2023-07-02T11:22:16;24.19;47.24
66213;SHT31;53015;50.046;8.238;2023-07-02T11:24:41;24.09;47.52
66213;SHT31;53015;50.046;8.238;2023-07-02T11:27:07;24.02;48.18
66213;SHT31;53015;50.046;8.238;2023-07-02T11:29:34;24.06;47.77
66213;SHT31;53015;50.046;8.238;2023-07-02T11:32:07;24.08;46.51
66213;SHT31;53015;50.046;8.238;2023-07-02T11:34:33;24.26;45.89
66213;SHT31;53015;50.046;8.238;2023-07-02T11:36:59;24.78;47.10
66213;SHT31;53015;50.046;8.238;2023-07-02T11:39:24;24.85;45.76
66213;SHT31;53015;50.046;8.238;2023-07-02T11:41:50;24.40;44.89
66213;SHT31;53015;50.046;8.238;2023-07-02T11:44:16;24.15;45.05
66213;SHT31;53015;50.046;8.238;2023-07-02T11:46:41;24.10;44.82
66213;SHT31;53015;50.046;8.238;2023-07-02T11:49:07;23.85;44.71
66213;SHT31;53015;50.046;8.238;2023-07-02T11:51:35;23.53;45.06
66213;SHT31;53015;50.046;8.238;2023-07-02T11:54:00;23.60;45.56
66213;SHT31;53015;50.046;8.238;2023-07-02T11:56:26;23.99;45.60
66213;SHT31;53015;50.046;8.238;2023-07-02T11:58:51;24.12;45.00
66213;SHT31;53015;50.046;8.238;2023-07-02T12:01:17;24.12;44.39
66213;SHT31;53015;50.046;8.238;2023-07-02T12:03:44;23.88;44.55
66213;SHT31;53015;50.046;8.238;2023-07-02T12:06:10;24.32;44.72
66213;SHT31;53015;50.046;8.238;2023-07-02T12:08:36;24.26;45.30
66213;SHT31;53015;50.046;8.238;2023-07-02T12:11:02;24.15;44.58
66213;SHT31;53015;50.046;8.238;2023-07-02T12:13:27;24.27;45.48
66213;SHT31;53015;50.046;8.238;2023-07-02T12:15:53;24.30;44.72
66213;SHT31;53015;50.046;8.238;2023-07-02T12:18:18;24.24;45.41
66213;SHT31;53015;50.046;8.238;2023-07-02T12:20:44;24.44;45.73
66213;SHT31;53015;50.046;8.238;2023-07-02T12:23:10;24.81;46.08
66213;SHT31;53015;50.046;8.238;2023-07-02T12:25:37;24.59;44.53
66213;SHT31;53015;50.046;8.238;2023-07-02T12:28:03;24.34;44.74
66213;SHT31;53015;50.046;8.238;2023-07-02T12:30:29;24.61;44.30
66213;SHT31;53015;50.046;8.238;2023-07-02T12:32:54;24.33;44.45
66213;SHT31;53015;50.046;8.238;2023-07-02T12:35:20;24.87;44.96
66213;SHT31;53015;50.046;8.238;2023-07-02T12:37:46;24.64;44.07
66213;SHT31;53015;50.046;8.238;2023-07-02T12:40:12;24.32;44.17
66213;SHT31;53015;50.046;8.238;2023-07-02T12:42:40;24.17;44.97
66213;SHT31;53015;50.046;8.238;2023-07-02T12:45:07;23.95;45.73
66213;SHT31;53015;50.046;8.238;2023-07-02T12:47:33;23.84;46.29
66213;SHT31;53015;50.046;8.238;2023-07-02T12:49:58;24.19;46.35
66213;SHT31;53015;50.046;8.238;2023-07-02T12:52:24;24.51;46.89
66213;SHT31;53015;50.046;8.238;2023-07-02T12:54:49;24.41;44.79
66213;SHT31;53015;50.046;8.238;2023-07-02T12:57:15;24.74;45.14
66213;SHT31;53015;50.046;8.238;2023-07-02T12:59:41;24.16;44.82
66213;SHT31;53015;50.046;8.238;2023-07-02T13:02:07;24.56;45.39
66213;SHT31;53015;50.046;8.238;2023-07-02T13:04:32;24.44;44.40
66213;SHT31;53015;50.046;8.238;2023-07-02T13:06:58;24.57;44.91
66213;SHT31;53015;50.046;8.238;2023-07-02T13:09:23;24.74;44.97
66213;SHT31;53015;50.046;8.238;2023-07-02T13:11:49;24.40;44.86
66213;SHT31;53015;50.046;8.238;2023-07-02T13:14:14;25.02;44.50
66213;SHT31;53015;50.046;8.238;2023-07-02T13:16:41;25.16;44.10
66213;SHT31;53015;50.046;8.238;2023-07-02T13:19:06;25.35;44.52
66213;SHT31;53015;50.046;8.238;2023-07-02T13:21:32;25.15;44.15
66213;SHT31;53015;50.046;8.238;2023-07-02T13:23:57;25.27;43.95
66213;SHT31;53015;50.046;8.238;2023-07-02T13:26:23;25.04;44.34
66213;SHT31;53015;50.046;8.238;2023-07-02T13:28:48;25.27;44.18
66213;SHT31;53015;50.046;8.238;2023-07-02T13:31:14;25.12;44.43
66213;SHT31;53015;50.046;8.238;2023-07-02T13:33:41;25.59;44.40
66213;SHT31;53015;50.046;8.238;2023-07-02T13:36:06;25.78;43.80
66213;SHT31;53015;50.046;8.238;2023-07-02T13:38:32;25.53;44.21
66213;SHT31;53015;50.046;8.238;2023-07-02T13:40:58;25.22;44.11
66213;SHT31;53015;50.046;8.238;2023-07-02T13:43:23;25.01;44.72
66213;SHT31;53015;50.046;8.238;2023-07-02T13:45:49;25.33;44.59
66213;SHT31;53015;50.046;8.238;2023-07-02T13:48:15;26.12;43.77
66213;SHT31;53015;50.046;8.238;2023-07-02T13:50:42;26.83;42.20
66213;SHT31;53015;50.046;8.238;2023-07-02T13:53:07;27.42;41.11
66213;SHT31;53015;50.046;8.238;2023-07-02T13:55:33;27.35;40.73
66213;SHT31;53015;50.046;8.238;2023-07-02T13:57:59;26.97;40.84
66213;SHT31;53015;50.046;8.238;2023-07-02T14:00:26;27.52;40.97
66213;SHT31;53015;50.046;8.238;2023-07-02T14:02:51;26.32;41.32
66213;SHT31;53015;50.046;8.238;2023-07-02T14:05:18;26.02;42.13
66213;SHT31;53015;50.046;8.238;2023-07-02T14:07:43;26.18;42.44
66213;SHT31;53015;50.046;8.238;2023-07-02T14:10:09;25.73;43.05
66213;SHT31;53015;50.046;8.238;2023-07-02T14:12:35;25.99;43.48
66213;SHT31;53015;50.046;8.238;2023-07-02T14:15:01;26.26;43.27
66213;SHT31;53015;50.046;8.238;2023-07-02T14:17:27;26.12;43.24
66213;SHT31;53015;50.046;8.238;2023-07-02T14:19:53;25.39;43.29
66213;SHT31;53015;50.046;8.238;2023-07-02T14:22:18;25.35;44.05
66213;SHT31;53015;50.046;8.238;2023-07-02T14:24:44;25.99;43.00
66213;SHT31;53015;50.046;8.238;2023-07-02T14:27:09;26.76;42.11
66213;SHT31;53015;50.046;8.238;2023-07-02T14:29:35;27.04;40.76
66213;SHT31;53015;50.046;8.238;2023-07-02T14:32:01;27.07;40.19
66213;SHT31;53015;50.046;8.238;2023-07-02T14:34:28;28.29;39.99
66213;SHT31;53015;50.046;8.238;2023-07-02T14:36:53;27.83;38.11
66213;SHT31;53015;50.046;8.238;2023-07-02T14:39:19;27.89;38.99
66213;SHT31;53015;50.046;8.238;2023-07-02T14:41:44;28.65;37.87
66213;SHT31;53015;50.046;8.238;2023-07-02T14:44:10;28.60;37.44
66213;SHT31;53015;50.046;8.238;2023-07-02T14:46:35;29.32;37.13
66213;SHT31;53015;50.046;8.238;2023-07-02T14:49:01;30.37;34.99
66213;SHT31;53015;50.046;8.238;2023-07-02T14:51:28;29.90;35.25
66213;SHT31;53015;50.046;8.238;2023-07-02T14:53:53;30.44;35.65
66213;SHT31;53015;50.046;8.238;2023-07-02T14:56:19;29.78;36.01
66213;SHT31;53015;50.046;8.238;2023-07-02T14:58:44;28.20;37.10
66213;SHT31;53015;50.046;8.238;2023-07-02T15:01:10;27.62;37.97
66213;SHT31;53015;50.046;8.238;2023-07-02T15:03:35;27.29;38.54
66213;SHT31;53015;50.046;8.238;2023-07-02T15:06:09;28.59;35.94
66213;SHT31;53015;50.046;8.238;2023-07-02T15:08:36;28.49;36.75
66213;SHT31;53015;50.046;8.238;2023-07-02T15:11:02;28.29;37.41
66213;SHT31;53015;50.046;8.238;2023-07-02T15:13:28;27.07;38.77
66213;SHT31;53015;50.046;8.238;2023-07-02T15:15:54;28.17;37.35
66213;SHT31;53015;50.046;8.238;2023-07-02T15:18:19;28.67;36.70
66213;SHT31;53015;50.046;8.238;2023-07-02T15:20:44;29.73;34.94